createdAt,value
2018-12-11T06:31:12.541Z,14.20
2018-12-11T06:33:42.741Z,15.40
2018-12-11T06:36:11.208Z,15.30
2018-12-11T06:38:40.243Z,15.30
2018-12-11T06:41:09.344Z,15.40
2018-12-11T06:43:38.239Z,15.40
2018-12-11T06:46:07.195Z,15.40
2018-12-11T06:48:36.307Z,15.40
2018-12-11T06:51:06.683Z,15.40
2018-12-11T06:53:35.516Z,15.40
2018-12-11T06:56:04.194Z,15.50
2018-12-11T06:58:32.948Z,15.50
2018-12-11T07:01:02.116Z,15.50
2018-12-11T07:03:31.626Z,15.50
2018-12-11T07:06:00.735Z,15.60
2018-12-11T07:08:30.168Z,15.60
2018-12-11T07:10:58.989Z,15.70
2018-12-11T07:13:27.436Z,15.70
2018-12-11T07:15:56.131Z,15.70
2018-12-11T07:18:26.046Z,15.80
2018-12-11T07:20:54.736Z,15.80
2018-12-11T07:23:23.407Z,15.90
2018-12-11T07:25:52.099Z,15.90
2018-12-11T07:28:20.787Z,15.90
2018-12-11T07:30:50.389Z,16.00
2018-12-11T07:33:19.490Z,16.00
2018-12-11T07:35:47.838Z,16.10
2018-12-11T07:38:17.108Z,16.10
2018-12-11T07:40:46.207Z,16.20
2018-12-11T07:43:14.894Z,16.20
2018-12-11T07:45:43.664Z,16.20
2018-12-11T07:48:12.965Z,16.30
2018-12-11T07:50:42.147Z,16.40
2018-12-11T07:53:13.152Z,16.40
2018-12-11T07:55:41.843Z,16.40
2018-12-11T07:58:11.227Z,16.50
2018-12-11T08:00:40.104Z,16.50
2018-12-11T08:03:08.816Z,16.60
2018-12-11T08:05:38.208Z,16.70
2018-12-11T08:08:08.744Z,16.80
2018-12-11T08:10:39.946Z,17.00
2018-12-11T08:13:08.983Z,17.10
2018-12-11T08:15:38.385Z,17.20
2018-12-11T08:18:07.102Z,17.30
2018-12-11T08:20:37.296Z,17.50
2018-12-11T08:23:06.028Z,17.60
2018-12-11T08:25:35.619Z,17.70
2018-12-11T08:28:04.703Z,17.80
2018-12-11T08:30:33.411Z,17.90
2018-12-11T08:33:02.411Z,18.10
2018-12-11T08:35:32.456Z,18.20
2018-12-11T08:38:01.983Z,18.30
2018-12-11T08:40:30.963Z,18.40
2018-12-11T08:42:59.660Z,18.50
2018-12-11T08:45:28.881Z,18.60
2018-12-11T08:47:57.560Z,18.80
2018-12-11T08:50:26.560Z,18.70
2018-12-11T08:52:55.583Z,18.90
2018-12-11T08:55:25.463Z,19.00
2018-12-11T08:57:54.830Z,19.10
2018-12-11T09:00:24.184Z,19.20
2018-12-11T09:02:52.995Z,19.30
2018-12-11T09:05:22.104Z,19.40
2018-12-11T09:07:53.820Z,19.50
2018-12-11T09:10:23.445Z,19.60
2018-12-11T09:12:52.448Z,19.60
2018-12-11T09:15:22.509Z,19.70
2018-12-11T09:17:52.019Z,19.70
2018-12-11T09:20:21.104Z,19.80
2018-12-11T09:22:50.140Z,19.80
2018-12-11T09:25:18.918Z,19.80
2018-12-11T09:27:49.423Z,19.80
2018-12-11T09:30:18.435Z,19.80
2018-12-11T09:32:47.612Z,19.80
2018-12-11T09:35:17.040Z,19.80
2018-12-11T09:37:46.163Z,19.80
2018-12-11T09:40:14.909Z,19.80
2018-12-11T09:42:44.181Z,19.70
2018-12-11T09:45:13.668Z,19.70
2018-12-11T09:47:43.188Z,19.70
2018-12-11T09:50:12.291Z,19.60
2018-12-11T09:52:40.993Z,19.60
2018-12-11T09:55:10.135Z,19.50
2018-12-11T09:57:39.324Z,19.50
2018-12-11T10:00:09.347Z,19.40
2018-12-11T10:02:40.336Z,19.40
2018-12-11T10:05:10.042Z,19.40
2018-12-11T10:07:38.752Z,19.30
2018-12-11T10:10:07.435Z,19.20
2018-12-11T10:12:36.600Z,19.20
2018-12-11T10:15:06.267Z,19.10
2018-12-11T10:17:35.398Z,19.10
2018-12-11T10:20:05.568Z,19.00
2018-12-11T10:22:33.992Z,19.00
2018-12-11T10:25:03.051Z,18.90
2018-12-11T10:27:32.188Z,18.90
2018-12-11T10:30:01.279Z,18.90
2018-12-11T10:32:30.412Z,18.80
2018-12-11T10:34:59.124Z,18.80
2018-12-11T10:37:28.270Z,18.70
2018-12-11T10:39:56.967Z,18.70
2018-12-11T10:42:27.807Z,18.60
2018-12-11T10:44:56.819Z,18.60
2018-12-11T10:47:25.962Z,18.50
2018-12-11T10:49:55.229Z,18.50
2018-12-11T10:52:24.320Z,18.50
2018-12-11T10:54:53.411Z,18.40
2018-12-11T10:57:22.637Z,18.40
2018-12-11T10:59:51.443Z,18.40
2018-12-11T11:02:23.433Z,18.30
2018-12-11T11:04:52.132Z,18.30
2018-12-11T11:07:21.579Z,18.20
2018-12-11T11:09:50.909Z,18.20
2018-12-11T11:12:19.579Z,18.10
2018-12-11T11:17:17.147Z,18.10
2018-12-11T11:19:46.740Z,18.10
2018-12-11T11:22:15.944Z,18.00
2018-12-11T11:24:44.643Z,18.00
2018-12-11T11:27:13.469Z,18.00
2018-12-11T11:29:42.146Z,17.90
2018-12-11T11:32:12.626Z,17.90
2018-12-11T11:34:41.820Z,17.90
2018-12-11T11:37:10.495Z,17.90
2018-12-11T11:39:40.022Z,17.80
2018-12-11T11:42:10.041Z,17.80
2018-12-11T11:44:38.799Z,17.80
2018-12-11T11:47:07.734Z,17.80
2018-12-11T11:49:38.539Z,17.80
2018-12-11T11:52:07.543Z,17.70
2018-12-11T11:54:36.708Z,17.70
2018-12-11T11:57:05.779Z,17.70
2018-12-11T11:59:35.879Z,17.70
2018-12-11T12:02:04.640Z,17.70
2018-12-11T12:04:33.488Z,17.60
2018-12-11T12:07:03.621Z,17.60
2018-12-11T12:09:32.943Z,17.60
2018-12-11T12:12:01.957Z,17.60
2018-12-11T12:14:31.703Z,17.60
2018-12-11T12:17:00.683Z,17.60
2018-12-11T12:19:29.955Z,17.60
2018-12-11T12:21:58.759Z,17.60
2018-12-11T12:24:28.224Z,17.60
2018-12-11T12:26:56.912Z,17.70
2018-12-11T12:29:26.305Z,17.70
2018-12-11T12:31:55.408Z,17.70
2018-12-11T12:34:24.775Z,17.70
2018-12-11T12:36:54.367Z,17.70
2018-12-11T12:39:23.196Z,17.80
2018-12-11T12:41:52.515Z,17.80
2018-12-11T12:44:21.676Z,17.80
2018-12-11T12:46:50.410Z,17.80
2018-12-11T12:49:19.131Z,17.90
2018-12-11T12:51:47.888Z,17.90
2018-12-11T12:54:17.030Z,17.90
2018-12-11T12:56:46.036Z,17.90
2018-12-11T12:59:15.593Z,18.00
2018-12-11T13:01:44.600Z,18.00
2018-12-11T13:04:13.826Z,18.00
2018-12-11T13:06:44.251Z,18.10
2018-12-11T13:09:12.963Z,18.10
2018-12-11T13:11:41.957Z,18.10
2018-12-11T13:14:10.946Z,18.20
2018-12-11T13:16:40.369Z,18.20
2018-12-11T13:19:09.573Z,18.20
2018-12-11T13:21:38.465Z,18.30
2018-12-11T13:24:07.861Z,18.30
2018-12-11T13:26:36.700Z,18.30
2018-12-11T13:29:06.153Z,18.40
2018-12-11T13:31:35.347Z,18.40
2018-12-11T13:34:04.444Z,18.40
2018-12-11T13:36:34.024Z,18.40
2018-12-11T13:39:03.204Z,18.50
2018-12-11T13:41:32.341Z,18.50
2018-12-11T13:44:01.445Z,18.50
2018-12-11T13:46:30.951Z,18.50
2018-12-11T13:48:59.651Z,18.50
2018-12-11T13:51:29.281Z,18.60
2018-12-11T13:53:58.777Z,18.60
2018-12-11T13:56:27.927Z,18.60
2018-12-11T13:58:58.553Z,18.60
2018-12-11T14:01:27.713Z,18.60
2018-12-11T14:03:56.787Z,18.70
2018-12-11T14:06:26.187Z,18.70
2018-12-11T14:08:55.243Z,18.70
2018-12-11T14:11:24.053Z,18.70
2018-12-11T14:13:53.278Z,18.70
2018-12-11T14:18:51.148Z,18.70
2018-12-11T14:21:19.860Z,18.70
2018-12-11T14:26:17.907Z,18.80
2018-12-11T14:28:48.136Z,18.80
2018-12-11T14:31:17.353Z,18.80
2018-12-11T14:33:46.579Z,18.80
2018-12-11T14:36:15.431Z,18.80
2018-12-11T14:38:44.660Z,18.80
2018-12-11T14:41:14.703Z,18.80
2018-12-11T14:43:43.780Z,18.80
2018-12-11T14:46:12.509Z,18.80
2018-12-11T14:48:41.843Z,18.80
2018-12-11T14:51:12.191Z,18.80
2018-12-11T14:53:41.240Z,18.70
2018-12-11T14:56:10.366Z,18.70
2018-12-11T14:58:39.579Z,18.70
2018-12-11T15:01:08.696Z,18.70
2018-12-11T15:03:37.383Z,18.70
2018-12-11T15:06:06.812Z,18.60
2018-12-11T15:08:36.000Z,18.60
2018-12-11T15:11:05.083Z,18.60
2018-12-11T15:13:33.800Z,18.60
2018-12-11T15:16:02.872Z,18.60
2018-12-11T15:18:32.329Z,18.60
2018-12-11T15:21:01.036Z,18.60
2018-12-11T15:23:30.629Z,18.60
2018-12-11T15:26:00.857Z,18.60
2018-12-11T15:28:30.207Z,18.60
2018-12-11T15:31:10.657Z,18.60
2018-12-11T15:33:39.702Z,18.60
2018-12-11T15:36:09.266Z,18.50
2018-12-11T15:38:38.086Z,18.50
2018-12-11T15:41:06.916Z,18.50
2018-12-11T15:43:36.052Z,18.50
2018-12-11T15:46:04.759Z,18.50
2018-12-11T15:48:33.471Z,18.40
2018-12-11T15:51:02.160Z,18.40
2018-12-11T15:53:32.999Z,18.40
2018-12-11T15:56:02.291Z,18.40
2018-12-11T15:58:31.356Z,18.30
2018-12-11T16:01:00.160Z,18.30
2018-12-11T16:03:29.584Z,18.30
2018-12-11T16:05:58.837Z,18.30
2018-12-11T16:08:28.992Z,18.30
2018-12-11T16:10:58.594Z,18.20
2018-12-11T16:13:27.298Z,18.20
2018-12-11T16:15:56.030Z,18.20
2018-12-11T16:18:25.024Z,18.20
2018-12-11T16:20:55.356Z,18.10
2018-12-11T16:23:24.851Z,18.10
2018-12-11T16:25:54.023Z,18.10
2018-12-11T16:28:23.168Z,18.10
2018-12-11T16:30:52.090Z,18.10
2018-12-11T16:33:22.091Z,18.00
2018-12-11T16:35:51.710Z,18.00
2018-12-11T16:38:22.484Z,18.00
2018-12-11T16:43:21.652Z,17.90
2018-12-11T16:45:50.388Z,17.90
2018-12-11T16:48:19.448Z,17.90
2018-12-11T16:50:48.501Z,17.90
2018-12-11T16:53:17.494Z,17.90
2018-12-11T16:55:46.947Z,17.90
2018-12-11T16:58:16.486Z,17.90
2018-12-11T17:03:14.688Z,17.90
2018-12-11T17:05:44.100Z,17.80
2018-12-11T17:08:12.804Z,17.90
2018-12-11T17:10:41.876Z,17.90
2018-12-11T17:13:11.285Z,17.90
2018-12-11T17:15:40.747Z,17.90
2018-12-11T17:18:09.816Z,17.90
2018-12-11T17:20:39.017Z,17.90
2018-12-11T17:23:08.003Z,17.90
2018-12-11T17:25:37.276Z,18.00
2018-12-11T17:28:06.760Z,18.00
2018-12-11T17:30:36.229Z,18.00
2018-12-11T17:33:05.532Z,18.00
2018-12-11T17:35:35.166Z,18.00
2018-12-11T17:38:04.176Z,18.00
2018-12-11T17:40:33.667Z,18.10
2018-12-11T17:43:02.743Z,18.10
2018-12-11T17:45:32.206Z,18.10
2018-12-11T17:48:01.426Z,18.10
2018-12-11T17:50:30.836Z,18.20
2018-12-11T17:53:00.032Z,18.20
2018-12-11T17:55:30.236Z,18.20
2018-12-11T17:57:59.437Z,18.20
2018-12-11T18:00:29.028Z,18.30
2018-12-11T18:02:58.047Z,18.30
2018-12-11T18:05:27.523Z,18.30
2018-12-11T18:07:56.675Z,18.30
2018-12-11T18:10:26.160Z,18.30
2018-12-11T18:12:55.776Z,18.30
2018-12-11T18:15:26.049Z,18.30
2018-12-11T18:17:56.183Z,18.40
2018-12-11T18:20:25.795Z,18.40
2018-12-11T18:22:55.333Z,18.40
2018-12-11T18:25:24.774Z,18.40
2018-12-11T18:27:53.953Z,18.40
2018-12-11T18:30:23.532Z,18.40
2018-12-11T18:32:52.958Z,18.40
2018-12-11T18:35:21.700Z,18.40
2018-12-11T18:37:50.843Z,18.40
2018-12-11T18:40:20.295Z,18.40
2018-12-11T18:42:49.687Z,18.40
2018-12-11T18:45:19.004Z,18.40
2018-12-11T18:47:50.005Z,18.50
2018-12-11T18:50:21.309Z,18.50
2018-12-11T18:52:47.452Z,18.50
2018-12-11T18:55:16.180Z,18.50
2018-12-11T18:57:45.612Z,18.50
2018-12-11T19:00:15.285Z,18.50
2018-12-11T19:02:44.820Z,18.50
2018-12-11T19:05:14.746Z,18.50
2018-12-11T19:07:44.209Z,18.60
2018-12-11T19:10:13.038Z,18.60
2018-12-11T19:12:42.523Z,18.60
2018-12-11T19:15:11.736Z,18.60
2018-12-11T19:17:41.164Z,18.60
2018-12-11T19:20:09.895Z,18.60
2018-12-11T19:22:38.639Z,18.70
2018-12-11T19:25:11.724Z,18.70
2018-12-11T19:27:40.736Z,18.60
2018-12-11T19:30:09.741Z,18.70
2018-12-11T19:32:39.420Z,18.70
2018-12-11T19:35:08.874Z,18.70
2018-12-11T19:37:38.300Z,18.70
2018-12-11T19:40:09.781Z,18.70
2018-12-11T19:42:39.859Z,18.70
2018-12-11T19:45:08.984Z,18.70
2018-12-11T19:47:38.191Z,18.80
2018-12-11T19:50:07.585Z,18.80
2018-12-11T19:52:39.939Z,18.80
2018-12-11T19:55:06.572Z,18.80
2018-12-11T19:57:36.027Z,18.80
2018-12-11T20:00:05.598Z,18.80
2018-12-11T20:02:34.616Z,18.80
2018-12-11T20:05:03.663Z,18.80
2018-12-11T20:07:33.227Z,18.80
2018-12-11T20:10:08.132Z,18.70
2018-12-11T20:12:37.820Z,18.70
2018-12-11T20:15:07.785Z,18.70
2018-12-11T20:17:37.188Z,18.70
2018-12-11T20:20:06.508Z,18.70
2018-12-11T20:22:35.500Z,18.70
2018-12-11T20:25:04.645Z,18.70
2018-12-11T20:27:33.656Z,18.70
2018-12-11T20:30:02.940Z,18.70
2018-12-11T20:32:31.692Z,18.70
2018-12-11T20:35:02.668Z,18.80
2018-12-11T20:37:31.813Z,18.80
2018-12-11T20:40:01.258Z,18.80
2018-12-11T20:42:30.282Z,18.80
2018-12-11T20:44:59.338Z,18.80
2018-12-11T20:47:28.398Z,18.80
2018-12-11T20:49:57.660Z,18.80
2018-12-11T20:52:26.725Z,18.80
2018-12-11T20:54:56.200Z,18.80
2018-12-11T20:57:25.645Z,18.80
2018-12-11T20:59:54.728Z,18.80
2018-12-11T21:02:23.818Z,18.80
2018-12-11T21:04:53.181Z,18.90
2018-12-11T21:07:22.625Z,18.90
2018-12-11T21:09:52.194Z,18.90
2018-12-11T21:12:22.870Z,18.90
2018-12-11T21:14:52.244Z,18.90
2018-12-11T21:17:21.298Z,18.90
2018-12-11T21:19:50.740Z,18.90
2018-12-11T21:22:19.752Z,18.90
2018-12-11T21:24:49.007Z,18.90
2018-12-11T21:27:18.739Z,18.90
2018-12-11T21:29:47.576Z,18.90
2018-12-11T21:34:45.519Z,18.90
2018-12-11T21:37:15.096Z,18.90
2018-12-11T21:39:44.541Z,18.90
2018-12-11T21:42:14.672Z,18.90
2018-12-11T21:44:45.100Z,18.90
2018-12-11T21:47:15.896Z,18.90
2018-12-11T21:49:46.221Z,18.90
2018-12-11T21:52:15.686Z,18.80
2018-12-11T21:54:44.385Z,18.80
